sensor_id;sensor_type;location;lat;lon;timestamp;pressure;altitude;pressure_sealevel;temperature;humidity
71109;BME280;59614;51.012;-1.648;2023-09-19T10:05:44;99752.28;;;17.32;100.00
71109;BME280;59614;51.012;-1.648;2023-09-19T10:08:11;99750.03;;;17.40;100.00
71109;BME280;59614;51.012;-1.648;2023-09-19T10:10:39;99738.56;;;17.22;100.00
71109;BME280;59614;51.012;-1.648;2023-09-19T10:13:12;99744.75;;;17.23;100.00
71109;BME280;59614;51.012;-1.648;2023-09-19T10:15:39;99741.59;;;17.32;100.00
71109;BME280;59614;51.012;-1.648;2023-09-19T10:18:14;99740.03;;;17.44;100.00
71109;BME280;59614;51.012;-1.648;2023-09-19T10:20:45;99725.75;;;17.61;100.00
71109;BME280;59614;51.012;-1.648;2023-09-19T10:23:12;99720.25;;;17.64;100.00
71109;BME280;59614;51.012;-1.648;2023-09-19T10:25:46;99723.78;;;17.49;100.00
71109;BME280;59614;51.012;-1.648;2023-09-19T10:28:14;99732.34;;;17.86;100.00
71109;BME280;59614;51.012;-1.648;2023-09-19T10:30:46;99721.63;;;17.39;100.00
71109;BME280;59614;51.012;-1.648;2023-09-19T10:33:24;99732.72;;;17.16;100.00
71109;BME280;59614;51.012;-1.648;2023-09-19T10:35:56;99731.44;;;17.23;100.00
71109;BME280;59614;51.012;-1.648;2023-09-19T10:38:26;99735.28;;;17.01;100.00
71109;BME280;59614;51.012;-1.648;2023-09-19T10:40:55;99735.00;;;17.06;100.00
71109;BME280;59614;51.012;-1.648;2023-09-19T10:43:25;99739.69;;;17.34;100.00
71109;BME280;59614;51.012;-1.648;2023-09-19T10:45:51;99731.66;;;17.02;100.00
71109;BME280;59614;51.012;-1.648;2023-09-19T10:48:19;99740.59;;;17.01;100.00
71109;BME280;59614;51.012;-1.648;2023-09-19T10:50:53;99739.16;;;17.11;100.00
71109;BME280;59614;51.012;-1.648;2023-09-19T10:53:25;99731.63;;;17.20;100.00
71109;BME280;59614;51.012;-1.648;2023-09-19T10:55:57;99738.75;;;17.35;100.00
71109;BME280;59614;51.012;-1.648;2023-09-19T10:58:29;99731.09;;;17.45;100.00
71109;BME280;59614;51.012;-1.648;2023-09-19T11:00:59;99728.84;;;17.37;100.00
71109;BME280;59614;51.012;-1.648;2023-09-19T11:03:32;99751.59;;;17.44;100.00
71109;BME280;59614;51.012;-1.648;2023-09-19T11:06:13;99745.47;;;16.93;100.00
71109;BME280;59614;51.012;-1.648;2023-09-19T11:09:01;99760.38;;;16.97;100.00
71109;BME280;59614;51.012;-1.648;2023-09-19T11:22:18;99739.69;;;17.34;100.00
71109;BME280;59614;51.012;-1.648;2023-09-19T11:24:44;99741.94;;;17.58;100.00
71109;BME280;59614;51.012;-1.648;2023-09-19T11:27:14;99736.75;;;17.23;100.00
71109;BME280;59614;51.012;-1.648;2023-09-19T11:29:42;99740.22;;;17.25;100.00
71109;BME280;59614;51.012;-1.648;2023-09-19T11:32:07;99747.41;;;17.23;100.00
71109;BME280;59614;51.012;-1.648;2023-09-19T11:39:37;99745.22;;;17.47;100.00
71109;BME280;59614;51.012;-1.648;2023-09-19T11:45:06;99733.75;;;17.61;100.00
71109;BME280;59614;51.012;-1.648;2023-09-19T11:47:32;99717.16;;;17.56;100.00
71109;BME280;59614;51.012;-1.648;2023-09-19T11:50:01;99724.00;;;17.76;100.00
71109;BME280;59614;51.012;-1.648;2023-09-19T11:52:28;99716.06;;;18.06;100.00
71109;BME280;59614;51.012;-1.648;2023-09-19T11:55:00;99717.28;;;17.85;100.00
71109;BME280;59614;51.012;-1.648;2023-09-19T11:57:27;99711.06;;;17.54;100.00
71109;BME280;59614;51.012;-1.648;2023-09-19T11:59:55;99704.06;;;17.19;100.00
71109;BME280;59614;51.012;-1.648;2023-09-19T12:02:39;99709.75;;;17.29;100.00
71109;BME280;59614;51.012;-1.648;2023-09-19T12:05:06;99699.41;;;17.71;100.00
71109;BME280;59614;51.012;-1.648;2023-09-19T12:07:42;99703.81;;;17.56;100.00
71109;BME280;59614;51.012;-1.648;2023-09-19T12:10:08;99705.78;;;17.36;100.00
71109;BME280;59614;51.012;-1.648;2023-09-19T12:12:37;99710.13;;;17.39;100.00
71109;BME280;59614;51.012;-1.648;2023-09-19T12:15:02;99706.16;;;17.46;100.00
71109;BME280;59614;51.012;-1.648;2023-09-19T12:17:39;99715.63;;;17.52;100.00
71109;BME280;59614;51.012;-1.648;2023-09-19T12:20:08;99693.41;;;17.67;100.00
71109;BME280;59614;51.012;-1.648;2023-09-19T12:22:43;99709.16;;;17.72;100.00
71109;BME280;59614;51.012;-1.648;2023-09-19T12:25:10;99703.91;;;17.54;100.00
71109;BME280;59614;51.012;-1.648;2023-09-19T12:27:47;99702.34;;;17.66;100.00
71109;BME280;59614;51.012;-1.648;2023-09-19T12:30:14;99704.56;;;17.58;100.00
71109;BME280;59614;51.012;-1.648;2023-09-19T12:32:43;99709.94;;;18.04;100.00
71109;BME280;59614;51.012;-1.648;2023-09-19T12:35:10;99713.22;;;18.24;100.00
71109;BME280;59614;51.012;-1.648;2023-09-19T12:37:45;99719.78;;;17.88;100.00
71109;BME280;59614;51.012;-1.648;2023-09-19T12:40:20;99738.41;;;17.73;100.00
71109;BME280;59614;51.012;-1.648;2023-09-19T12:42:54;99736.50;;;17.75;100.00
71109;BME280;59614;51.012;-1.648;2023-09-19T12:45:20;99733.66;;;17.79;100.00
71109;BME280;59614;51.012;-1.648;2023-09-19T12:48:18;99728.13;;;17.82;100.00
71109;BME280;59614;51.012;-1.648;2023-09-19T12:51:09;99723.38;;;17.40;100.00
71109;BME280;59614;51.012;-1.648;2023-09-19T12:53:44;99726.44;;;17.65;100.00
71109;BME280;59614;51.012;-1.648;2023-09-19T12:56:16;99726.13;;;17.85;100.00
71109;BME280;59614;51.012;-1.648;2023-09-19T12:58:49;99717.09;;;18.04;100.00
71109;BME280;59614;51.012;-1.648;2023-09-19T13:01:15;99719.88;;;17.70;100.00
71109;BME280;59614;51.012;-1.648;2023-09-19T13:03:41;99711.81;;;17.72;100.00
71109;BME280;59614;51.012;-1.648;2023-09-19T13:06:07;99722.13;;;17.78;100.00
71109;BME280;59614;51.012;-1.648;2023-09-19T13:08:36;99714.78;;;17.82;100.00
71109;BME280;59614;51.012;-1.648;2023-09-19T13:11:17;99720.19;;;17.96;100.00
71109;BME280;59614;51.012;-1.648;2023-09-19T13:19:42;99694.59;;;17.45;100.00
71109;BME280;59614;51.012;-1.648;2023-09-19T13:22:44;99694.63;;;17.62;100.00
71109;BME280;59614;51.012;-1.648;2023-09-19T13:25:20;99703.31;;;17.49;100.00
71109;BME280;59614;51.012;-1.648;2023-09-19T13:27:57;99695.88;;;17.70;100.00
71109;BME280;59614;51.012;-1.648;2023-09-19T13:30:25;99689.66;;;17.86;100.00
71109;BME280;59614;51.012;-1.648;2023-09-19T13:32:51;99685.63;;;17.79;100.00
71109;BME280;59614;51.012;-1.648;2023-09-19T13:35:18;99689.75;;;17.68;100.00
71109;BME280;59614;51.012;-1.648;2023-09-19T13:37:44;99694.53;;;17.94;100.00
71109;BME280;59614;51.012;-1.648;2023-09-19T13:40:12;99687.19;;;17.67;100.00
71109;BME280;59614;51.012;-1.648;2023-09-19T13:42:37;99696.00;;;17.53;100.00
71109;BME280;59614;51.012;-1.648;2023-09-19T13:45:04;99695.38;;;17.94;100.00
71109;BME280;59614;51.012;-1.648;2023-09-19T13:47:30;99699.38;;;17.87;100.00
71109;BME280;59614;51.012;-1.648;2023-09-19T13:49:56;99692.66;;;17.80;100.00
71109;BME280;59614;51.012;-1.648;2023-09-19T13:52:22;99701.88;;;17.74;100.00
71109;BME280;59614;51.012;-1.648;2023-09-19T13:54:49;99707.31;;;17.72;100.00
71109;BME280;59614;51.012;-1.648;2023-09-19T13:57:15;99698.34;;;17.89;100.00
71109;BME280;59614;51.012;-1.648;2023-09-19T13:59:41;99703.69;;;17.73;100.00
71109;BME280;59614;51.012;-1.648;2023-09-19T14:02:07;99701.63;;;17.63;100.00
71109;BME280;59614;51.012;-1.648;2023-09-19T14:04:32;99703.06;;;17.54;100.00
71109;BME280;59614;51.012;-1.648;2023-09-19T14:07:00;99707.19;;;18.06;100.00
71109;BME280;59614;51.012;-1.648;2023-09-19T14:09:26;99697.47;;;18.05;100.00
71109;BME280;59614;51.012;-1.648;2023-09-19T14:11:52;99697.97;;;18.12;100.00
71109;BME280;59614;51.012;-1.648;2023-09-19T14:14:18;99690.31;;;17.89;100.00
71109;BME280;59614;51.012;-1.648;2023-09-19T14:16:45;99695.38;;;18.10;100.00
71109;BME280;59614;51.012;-1.648;2023-09-19T14:19:11;99703.16;;;17.99;100.00
71109;BME280;59614;51.012;-1.648;2023-09-19T14:21:36;99699.19;;;18.06;100.00
71109;BME280;59614;51.012;-1.648;2023-09-19T14:24:03;99701.53;;;18.27;100.00
71109;BME280;59614;51.012;-1.648;2023-09-19T14:26:29;99683.59;;;18.29;100.00
71109;BME280;59614;51.012;-1.648;2023-09-19T14:28:54;99691.03;;;18.52;100.00
71109;BME280;59614;51.012;-1.648;2023-09-19T14:31:20;99695.16;;;18.44;100.00
71109;BME280;59614;51.012;-1.648;2023-09-19T14:33:45;99697.97;;;18.26;100.00
71109;BME280;59614;51.012;-1.648;2023-09-19T14:36:11;99701.34;;;18.44;100.00
71109;BME280;59614;51.012;-1.648;2023-09-19T14:38:37;99702.78;;;18.50;100.00
71109;BME280;59614;51.012;-1.648;2023-09-19T14:41:04;99697.06;;;18.71;100.00
71109;BME280;59614;51.012;-1.648;2023-09-19T14:43:30;99694.22;;;18.74;100.00
71109;BME280;59614;51.012;-1.648;2023-09-19T14:46:02;99706.53;;;18.91;100.00
71109;BME280;59614;51.012;-1.648;2023-09-19T14:48:27;99693.63;;;18.54;100.00
71109;BME280;59614;51.012;-1.648;2023-09-19T14:50:53;99686.84;;;18.77;100.00
71109;BME280;59614;51.012;-1.648;2023-09-19T14:53:20;99690.69;;;18.59;100.00
71109;BME280;59614;51.012;-1.648;2023-09-19T14:55:46;99693.63;;;18.54;100.00
71109;BME280;59614;51.012;-1.648;2023-09-19T14:58:13;99695.38;;;18.55;100.00
71109;BME280;59614;51.012;-1.648;2023-09-19T15:00:39;99693.63;;;18.83;100.00
71109;BME280;59614;51.012;-1.648;2023-09-19T15:03:04;99686.88;;;18.63;100.00
71109;BME280;59614;51.012;-1.648;2023-09-19T15:05:30;99685.81;;;18.65;100.00
71109;BME280;59614;51.012;-1.648;2023-09-19T15:07:56;99684.47;;;18.58;100.00
71109;BME280;59614;51.012;-1.648;2023-09-19T15:10:23;99689.84;;;19.02;100.00
71109;BME280;59614;51.012;-1.648;2023-09-19T15:12:48;99677.81;;;18.94;100.00
71109;BME280;59614;51.012;-1.648;2023-09-19T15:15:14;99665.56;;;19.05;100.00
71109;BME280;59614;51.012;-1.648;2023-09-19T15:17:40;99675.19;;;18.64;100.00
71109;BME280;59614;51.012;-1.648;2023-09-19T15:20:06;99682.16;;;18.81;100.00
71109;BME280;59614;51.012;-1.648;2023-09-19T15:22:35;99669.50;;;18.70;100.00
71109;BME280;59614;51.012;-1.648;2023-09-19T15:25:01;99687.69;;;18.49;100.00
71109;BME280;59614;51.012;-1.648;2023-09-19T15:27:28;99675.13;;;18.65;100.00
71109;BME280;59614;51.012;-1.648;2023-09-19T15:29:59;99673.13;;;18.69;100.00
71109;BME280;59614;51.012;-1.648;2023-09-19T15:32:26;99675.13;;;18.51;100.00
71109;BME280;59614;51.012;-1.648;2023-09-19T15:34:52;99661.28;;;18.44;100.00
71109;BME280;59614;51.012;-1.648;2023-09-19T15:37:18;99671.88;;;18.46;100.00
71109;BME280;59614;51.012;-1.648;2023-09-19T15:39:44;99679.31;;;18.55;100.00
71109;BME280;59614;51.012;-1.648;2023-09-19T15:42:11;99681.59;;;18.61;100.00
71109;BME280;59614;51.012;-1.648;2023-09-19T15:44:37;99665.84;;;18.42;100.00
71109;BME280;59614;51.012;-1.648;2023-09-19T15:47:03;99670.91;;;18.32;100.00
71109;BME280;59614;51.012;-1.648;2023-09-19T15:49:29;99678.13;;;18.16;100.00
71109;BME280;59614;51.012;-1.648;2023-09-19T15:51:54;99678.28;;;18.13;100.00
71109;BME280;59614;51.012;-1.648;2023-09-19T15:54:20;99678.28;;;18.13;100.00
71109;BME280;59614;51.012;-1.648;2023-09-19T15:56:45;99683.09;;;18.22;100.00
71109;BME280;59614;51.012;-1.648;2023-09-19T15:59:12;99675.94;;;18.23;100.00
71109;BME280;59614;51.012;-1.648;2023-09-19T16:01:39;99678.19;;;18.45;100.00
71109;BME280;59614;51.012;-1.648;2023-09-19T16:04:15;99682.38;;;18.34;100.00
71109;BME280;59614;51.012;-1.648;2023-09-19T16:06:42;99683.59;;;18.43;100.00
71109;BME280;59614;51.012;-1.648;2023-09-19T16:09:08;99687.84;;;18.17;100.00
71109;BME280;59614;51.012;-1.648;2023-09-19T16:11:36;99676.63;;;18.41;100.00
71109;BME280;59614;51.012;-1.648;2023-09-19T16:14:02;99676.72;;;18.53;100.00
71109;BME280;59614;51.012;-1.648;2023-09-19T16:16:28;99677.50;;;18.27;100.00
71109;BME280;59614;51.012;-1.648;2023-09-19T16:19:02;99667.84;;;18.39;100.00
71109;BME280;59614;51.012;-1.648;2023-09-19T16:21:28;99676.00;;;18.51;100.00
71109;BME280;59614;51.012;-1.648;2023-09-19T16:23:56;99667.00;;;18.67;100.00
71109;BME280;59614;51.012;-1.648;2023-09-19T16:26:22;99661.56;;;18.54;100.00
71109;BME280;59614;51.012;-1.648;2023-09-19T16:28:53;99666.31;;;18.49;100.00
71109;BME280;59614;51.012;-1.648;2023-09-19T16:31:19;99669.56;;;18.40;100.00
71109;BME280;59614;51.012;-1.648;2023-09-19T16:33:47;99670.81;;;18.48;100.00
71109;BME280;59614;51.012;-1.648;2023-09-19T16:36:14;99668.94;;;18.50;100.00
71109;BME280;59614;51.012;-1.648;2023-09-19T16:38:42;99666.28;;;18.05;100.00
71109;BME280;59614;51.012;-1.648;2023-09-19T16:41:08;99666.69;;;18.28;100.00
71109;BME280;59614;51.012;-1.648;2023-09-19T16:43:34;99678.69;;;18.06;100.00
71109;BME280;59614;51.012;-1.648;2023-09-19T16:46:01;99680.00;;;18.14;100.00
71109;BME280;59614;51.012;-1.648;2023-09-19T16:48:28;99670.50;;;18.24;100.00
71109;BME280;59614;51.012;-1.648;2023-09-19T16:51:01;99685.56;;;18.25;100.00
71109;BME280;59614;51.012;-1.648;2023-09-19T16:53:30;99674.56;;;18.01;100.00
71109;BME280;59614;51.012;-1.648;2023-09-19T16:56:02;99700.03;;;18.06;100.00
71109;BME280;59614;51.012;-1.648;2023-09-19T16:58:29;99698.88;;;17.80;100.00
71109;BME280;59614;51.012;-1.648;2023-09-19T17:00:55;99703.34;;;17.80;100.00
71109;BME280;59614;51.012;-1.648;2023-09-19T17:03:21;99700.66;;;17.96;100.00
71109;BME280;59614;51.012;-1.648;2023-09-19T17:05:48;99697.94;;;17.81;100.00
71109;BME280;59614;51.012;-1.648;2023-09-19T17:08:14;99701.44;;;17.98;100.00
71109;BME280;59614;51.012;-1.648;2023-09-19T17:10:40;99690.22;;;17.91;100.00
71109;BME280;59614;51.012;-1.648;2023-09-19T17:13:09;99696.34;;;17.93;100.00
71109;BME280;59614;51.012;-1.648;2023-09-19T17:15:38;99696.59;;;17.88;100.00
71109;BME280;59614;51.012;-1.648;2023-09-19T17:18:04;99699.38;;;17.87;100.00
71109;BME280;59614;51.012;-1.648;2023-09-19T17:20:30;99693.41;;;17.67;100.00
71109;BME280;59614;51.012;-1.648;2023-09-19T17:22:56;99701.66;;;17.79;100.00
71109;BME280;59614;51.012;-1.648;2023-09-19T17:25:22;99689.28;;;17.92;100.00
71109;BME280;59614;51.012;-1.648;2023-09-19T17:27:48;99690.75;;;17.82;100.00
71109;BME280;59614;51.012;-1.648;2023-09-19T17:30:14;99689.94;;;17.65;100.00
71109;BME280;59614;51.012;-1.648;2023-09-19T17:32:44;99697.16;;;17.79;100.00
71109;BME280;59614;51.012;-1.648;2023-09-19T17:35:11;99692.41;;;17.68;100.00
71109;BME280;59614;51.012;-1.648;2023-09-19T17:37:37;99698.00;;;17.80;100.00
71109;BME280;59614;51.012;-1.648;2023-09-19T17:40:09;99680.81;;;17.69;100.00
71109;BME280;59614;51.012;-1.648;2023-09-19T17:42:39;99686.44;;;17.49;100.00
71109;BME280;59614;51.012;-1.648;2023-09-19T17:45:08;99686.50;;;17.63;100.00
71109;BME280;59614;51.012;-1.648;2023-09-19T17:47:35;99698.19;;;17.77;100.00
71109;BME280;59614;51.012;-1.648;2023-09-19T17:50:02;99703.25;;;17.81;100.00
71109;BME280;59614;51.012;-1.648;2023-09-19T17:52:28;99692.66;;;17.80;100.00
71109;BME280;59614;51.012;-1.648;2023-09-19T17:54:54;99698.19;;;17.77;100.00
71109;BME280;59614;51.012;-1.648;2023-09-19T17:57:20;99699.72;;;17.81;100.00
71109;BME280;59614;51.012;-1.648;2023-09-19T17:59:46;99700.66;;;17.80;100.00
71109;BME280;59614;51.012;-1.648;2023-09-19T18:02:12;99701.44;;;17.82;100.00
71109;BME280;59614;51.012;-1.648;2023-09-19T18:04:37;99706.47;;;17.72;100.00
71109;BME280;59614;51.012;-1.648;2023-09-19T18:07:03;99712.66;;;17.72;100.00
71109;BME280;59614;51.012;-1.648;2023-09-19T18:09:29;99704.91;;;17.68;100.00
71109;BME280;59614;51.012;-1.648;2023-09-19T18:11:54;99700.63;;;17.65;100.00
71109;BME280;59614;51.012;-1.648;2023-09-19T18:14:19;99708.69;;;17.64;100.00
71109;BME280;59614;51.012;-1.648;2023-09-19T18:16:45;99698.41;;;17.57;100.00
71109;BME280;59614;51.012;-1.648;2023-09-19T18:19:10;99705.03;;;17.66;100.00
71109;BME280;59614;51.012;-1.648;2023-09-19T18:21:37;99703.56;;;17.44;100.00
71109;BME280;59614;51.012;-1.648;2023-09-19T18:24:02;99704.25;;;17.64;100.00
71109;BME280;59614;51.012;-1.648;2023-09-19T18:26:34;99702.09;;;17.55;100.00
71109;BME280;59614;51.012;-1.648;2023-09-19T18:29:03;99708.81;;;17.62;100.00
71109;BME280;59614;51.012;-1.648;2023-09-19T18:31:30;99697.38;;;17.28;100.00
71109;BME280;59614;51.012;-1.648;2023-09-19T18:33:59;99698.91;;;17.48;100.00
71109;BME280;59614;51.012;-1.648;2023-09-19T18:36:26;99708.13;;;17.26;100.00
71109;BME280;59614;51.012;-1.648;2023-09-19T18:38:53;99705.09;;;17.49;100.00
71109;BME280;59614;51.012;-1.648;2023-09-19T18:41:19;99693.59;;;17.32;100.00
71109;BME280;59614;51.012;-1.648;2023-09-19T18:43:45;99695.81;;;17.56;100.00
71109;BME280;59614;51.012;-1.648;2023-09-19T18:46:10;99699.25;;;17.58;100.00
71109;BME280;59614;51.012;-1.648;2023-09-19T18:48:40;99694.78;;;17.42;100.00
71109;BME280;59614;51.012;-1.648;2023-09-19T18:51:16;99696.84;;;17.37;100.00
71109;BME280;59614;51.012;-1.648;2023-09-19T18:53:44;99681.47;;;17.42;100.00
71109;BME280;59614;51.012;-1.648;2023-09-19T18:56:12;99680.59;;;17.42;100.00
71109;BME280;59614;51.012;-1.648;2023-09-19T18:58:42;99698.03;;;17.48;100.00
71109;BME280;59614;51.012;-1.648;2023-09-19T19:01:10;99696.34;;;17.31;100.00
71109;BME280;59614;51.012;-1.648;2023-09-19T19:03:37;99701.16;;;17.24;100.00
71109;BME280;59614;51.012;-1.648;2023-09-19T19:06:09;99697.38;;;17.28;100.00
71109;BME280;59614;51.012;-1.648;2023-09-19T19:08:36;99703.31;;;17.33;100.00
71109;BME280;59614;51.012;-1.648;2023-09-19T19:11:09;99692.91;;;17.44;100.00
71109;BME280;59614;51.012;-1.648;2023-09-19T19:13:40;99701.66;;;17.14;100.00
71109;BME280;59614;51.012;-1.648;2023-09-19T19:16:06;99706.47;;;17.40;100.00
71109;BME280;59614;51.012;-1.648;2023-09-19T19:18:38;99706.47;;;17.40;100.00
71109;BME280;59614;51.012;-1.648;2023-09-19T19:21:06;99706.47;;;17.24;100.00
71109;BME280;59614;51.012;-1.648;2023-09-19T19:23:34;99704.28;;;17.32;100.00
71109;BME280;59614;51.012;-1.648;2023-09-19T19:26:01;99695.38;;;17.32;100.00
71109;BME280;59614;51.012;-1.648;2023-09-19T19:28:30;99697.53;;;17.25;100.00
71109;BME280;59614;51.012;-1.648;2023-09-19T19:30:56;99693.56;;;17.00;100.00
71109;BME280;59614;51.012;-1.648;2023-09-19T19:33:21;99704.84;;;17.21;100.00
71109;BME280;59614;51.012;-1.648;2023-09-19T19:35:47;99703.81;;;17.24;100.00
71109;BME280;59614;51.012;-1.648;2023-09-19T19:38:13;99696.00;;;17.21;100.00
71109;BME280;59614;51.012;-1.648;2023-09-19T19:40:38;99699.94;;;17.13;100.00
71109;BME280;59614;51.012;-1.648;2023-09-19T19:43:04;99701.16;;;17.24;100.00
71109;BME280;59614;51.012;-1.648;2023-09-19T19:45:29;99700.97;;;17.27;100.00
71109;BME280;59614;51.012;-1.648;2023-09-19T19:47:56;99695.38;;;17.32;100.00
71109;BME280;59614;51.012;-1.648;2023-09-19T19:50:22;99699.09;;;17.45;100.00
71109;BME280;59614;51.012;-1.648;2023-09-19T19:52:54;99704.34;;;17.31;100.00
71109;BME280;59614;51.012;-1.648;2023-09-19T19:55:24;99698.06;;;17.16;100.00
71109;BME280;59614;51.012;-1.648;2023-09-19T19:57:53;99701.50;;;17.18;100.00
71109;BME280;59614;51.012;-1.648;2023-09-19T20:00:19;99713.53;;;17.25;100.00
71109;BME280;59614;51.012;-1.648;2023-09-19T20:02:45;99700.03;;;17.12;100.00
71109;BME280;59614;51.012;-1.648;2023-09-19T20:05:11;99700.63;;;17.17;100.00
71109;BME280;59614;51.012;-1.648;2023-09-19T20:07:37;99699.94;;;17.29;100.00
71109;BME280;59614;51.012;-1.648;2023-09-19T20:10:04;99707.19;;;17.27;100.00
71109;BME280;59614;51.012;-1.648;2023-09-19T20:12:29;99709.75;;;17.29;100.00
71109;BME280;59614;51.012;-1.648;2023-09-19T20:14:55;99703.91;;;17.06;100.00
71109;BME280;59614;51.012;-1.648;2023-09-19T20:17:22;99700.56;;;17.19;100.00
71109;BME280;59614;51.012;-1.648;2023-09-19T20:19:49;99707.66;;;17.02;100.00
71109;BME280;59614;51.012;-1.648;2023-09-19T20:22:18;99696.94;;;17.20;100.00
71109;BME280;59614;51.012;-1.648;2023-09-19T20:24:43;99697.47;;;17.26;100.00
71109;BME280;59614;51.012;-1.648;2023-09-19T20:27:09;99704.06;;;17.19;100.00
71109;BME280;59614;51.012;-1.648;2023-09-19T20:29:34;99696.25;;;17.16;100.00
71109;BME280;59614;51.012;-1.648;2023-09-19T20:32:04;99694.59;;;17.29;100.00
71109;BME280;59614;51.012;-1.648;2023-09-19T20:34:29;99697.63;;;17.23;100.00
71109;BME280;59614;51.012;-1.648;2023-09-19T20:36:55;99705.13;;;17.33;100.00
71109;BME280;59614;51.012;-1.648;2023-09-19T20:39:20;99694.88;;;17.25;100.00
71109;BME280;59614;51.012;-1.648;2023-09-19T20:41:49;99693.75;;;17.29;100.00
71109;BME280;59614;51.012;-1.648;2023-09-19T20:44:15;99697.53;;;17.25;100.00
71109;BME280;59614;51.012;-1.648;2023-09-19T20:46:40;99689.28;;;17.13;100.00
71109;BME280;59614;51.012;-1.648;2023-09-19T20:49:07;99692.97;;;17.27;100.00
71109;BME280;59614;51.012;-1.648;2023-09-19T20:51:32;99690.31;;;17.27;100.00
71109;BME280;59614;51.012;-1.648;2023-09-19T20:54:00;99686.72;;;17.28;100.00
71109;BME280;59614;51.012;-1.648;2023-09-19T20:56:26;99683.09;;;17.29;100.00
71109;BME280;59614;51.012;-1.648;2023-09-19T20:58:51;99676.81;;;17.14;100.00
71109;BME280;59614;51.012;-1.648;2023-09-19T21:01:17;99682.31;;;17.43;100.00
71109;BME280;59614;51.012;-1.648;2023-09-19T21:03:44;99687.13;;;17.20;100.00
71109;BME280;59614;51.012;-1.648;2023-09-19T21:06:10;99683.78;;;17.33;100.00
71109;BME280;59614;51.012;-1.648;2023-09-19T21:08:36;99678.00;;;17.40;100.00
71109;BME280;59614;51.012;-1.648;2023-09-19T21:11:13;99675.50;;;17.53;100.00
71109;BME280;59614;51.012;-1.648;2023-09-19T21:13:39;99668.69;;;17.48;100.00
71109;BME280;59614;51.012;-1.648;2023-09-19T21:16:08;99672.41;;;17.45;100.00
71109;BME280;59614;51.012;-1.648;2023-09-19T21:18:36;99673.28;;;17.29;100.00
71109;BME280;59614;51.012;-1.648;2023-09-19T21:21:03;99661.94;;;17.26;100.00
71109;BME280;59614;51.012;-1.648;2023-09-19T21:23:30;99666.69;;;17.21;100.00
71109;BME280;59614;51.012;-1.648;2023-09-19T21:25:56;99653.31;;;17.37;100.00
71109;BME280;59614;51.012;-1.648;2023-09-19T21:28:21;99653.06;;;17.41;100.00
71109;BME280;59614;51.012;-1.648;2023-09-19T21:31:16;99656.44;;;17.29;100.00
71109;BME280;59614;51.012;-1.648;2023-09-19T21:33:42;99639.41;;;17.16;100.00
71109;BME280;59614;51.012;-1.648;2023-09-19T21:36:09;99641.13;;;17.17;100.00
71109;BME280;59614;51.012;-1.648;2023-09-19T21:38:36;99639.41;;;17.16;100.00
71109;BME280;59614;51.012;-1.648;2023-09-19T21:41:08;99634.72;;;17.35;100.00
71109;BME280;59614;51.012;-1.648;2023-09-19T21:43:34;99619.75;;;17.33;100.00
71109;BME280;59614;51.012;-1.648;2023-09-19T21:46:01;99628.88;;;17.28;100.00
71109;BME280;59614;51.012;-1.648;2023-09-19T21:48:28;99622.09;;;17.23;100.00
71109;BME280;59614;51.012;-1.648;2023-09-19T21:50:54;99614.22;;;17.52;100.00
71109;BME280;59614;51.012;-1.648;2023-09-19T21:53:21;99602.31;;;17.27;100.00
71109;BME280;59614;51.012;-1.648;2023-09-19T21:55:46;99603.09;;;17.29;100.00
71109;BME280;59614;51.012;-1.648;2023-09-19T21:58:12;99615.13;;;17.20;100.00
71109;BME280;59614;51.012;-1.648;2023-09-19T22:00:37;99602.59;;;17.22;100.00
71109;BME280;59614;51.012;-1.648;2023-09-19T22:03:05;99601.38;;;17.28;100.00
71109;BME280;59614;51.012;-1.648;2023-09-19T22:05:34;99606.63;;;17.13;100.00
71109;BME280;59614;51.012;-1.648;2023-09-19T22:08:10;99593.72;;;17.22;100.00
71109;BME280;59614;51.012;-1.648;2023-09-19T22:10:47;99607.31;;;17.33;100.00
71109;BME280;59614;51.012;-1.648;2023-09-19T22:13:13;99584.25;;;17.00;100.00
71109;BME280;59614;51.012;-1.648;2023-09-19T22:15:59;99595.13;;;17.13;100.00
71109;BME280;59614;51.012;-1.648;2023-09-19T22:18:26;99581.91;;;17.26;100.00
71109;BME280;59614;51.012;-1.648;2023-09-19T22:20:55;99591.56;;;17.12;100.00
71109;BME280;59614;51.012;-1.648;2023-09-19T22:23:47;99590.09;;;17.23;100.00
71109;BME280;59614;51.012;-1.648;2023-09-19T22:26:16;99586.41;;;17.25;100.00
71109;BME280;59614;51.012;-1.648;2023-09-19T22:28:50;99591.75;;;17.25;100.00
71109;BME280;59614;51.012;-1.648;2023-09-19T22:31:23;99599.56;;;17.12;100.00
71109;BME280;59614;51.012;-1.648;2023-09-19T22:33:53;99596.00;;;17.44;100.00
71109;BME280;59614;51.012;-1.648;2023-09-19T22:36:23;99581.34;;;17.21;100.00
71109;BME280;59614;51.012;-1.648;2023-09-19T22:38:56;99583.47;;;17.30;100.00
71109;BME280;59614;51.012;-1.648;2023-09-19T22:41:26;99583.78;;;17.09;100.00
71109;BME280;59614;51.012;-1.648;2023-09-19T22:43:52;99586.91;;;17.32;100.00
71109;BME280;59614;51.012;-1.648;2023-09-19T22:46:21;99584.00;;;17.21;100.00
71109;BME280;59614;51.012;-1.648;2023-09-19T22:48:47;99589.13;;;17.40;100.00
71109;BME280;59614;51.012;-1.648;2023-09-19T22:51:14;99588.56;;;17.19;100.00
71109;BME280;59614;51.012;-1.648;2023-09-19T22:53:48;99589.78;;;17.13;100.00
71109;BME280;59614;51.012;-1.648;2023-09-19T22:56:17;99575.75;;;17.25;100.00
71109;BME280;59614;51.012;-1.648;2023-09-19T22:58:47;99582.28;;;17.20;100.00
71109;BME280;59614;51.012;-1.648;2023-09-19T23:01:17;99580.19;;;17.25;100.00
71109;BME280;59614;51.012;-1.648;2023-09-19T23:03:49;99579.75;;;17.33;100.00
71109;BME280;59614;51.012;-1.648;2023-09-19T23:06:18;99572.63;;;17.33;100.00
71109;BME280;59614;51.012;-1.648;2023-09-19T23:08:56;99577.97;;;17.33;100.00
71109;BME280;59614;51.012;-1.648;2023-09-19T23:11:25;99584.88;;;17.05;100.00
71109;BME280;59614;51.012;-1.648;2023-09-19T23:13:52;99572.47;;;17.20;100.00
71109;BME280;59614;51.012;-1.648;2023-09-19T23:16:19;99578.91;;;17.32;100.00